createdAt,value
2023-05-23T00:02:29.205Z,6.32
2023-05-23T00:07:32.610Z,6.60
2023-05-23T00:12:34.501Z,6.30
2023-05-23T00:17:39.730Z,6.07
2023-05-23T00:22:44.414Z,5.38
2023-05-23T00:27:46.272Z,5.35
2023-05-23T00:32:48.468Z,5.72
2023-05-23T00:37:52.015Z,5.35
2023-05-23T00:42:54.027Z,5.43
2023-05-23T00:47:56.285Z,5.47
2023-05-23T00:53:00.725Z,5.35
2023-05-23T00:58:02.968Z,4.95
2023-05-23T01:03:05.340Z,4.55
2023-05-23T01:08:08.231Z,4.90
2023-05-23T01:14:13.244Z,4.80
2023-05-23T01:19:28.255Z,5.18
2023-05-23T01:24:36.593Z,5.10
2023-05-23T01:29:43.770Z,5.57
2023-05-23T01:34:46.785Z,5.20
2023-05-23T01:39:49.156Z,5.30
2023-05-23T01:44:52.467Z,5.40
2023-05-23T01:49:55.618Z,4.75
2023-05-23T01:54:59.429Z,5.07
2023-05-23T02:00:01.548Z,5.53
2023-05-23T02:05:03.481Z,6.15
2023-05-23T02:10:09.134Z,6.57
2023-05-23T02:15:11.386Z,7.18
2023-05-23T02:20:14.559Z,6.90
2023-05-23T02:25:16.471Z,6.82
2023-05-23T02:30:18.414Z,7.47
2023-05-23T02:35:21.105Z,7.40
2023-05-23T02:40:23.000Z,7.55
2023-05-23T02:45:24.936Z,8.10
2023-05-23T02:50:26.957Z,8.50
2023-05-23T02:55:29.047Z,7.57
2023-05-23T03:00:30.947Z,6.75
2023-05-23T03:05:33.069Z,6.25
2023-05-23T03:10:35.137Z,5.88
2023-05-23T03:15:37.163Z,5.57
2023-05-23T03:20:42.566Z,5.35
2023-05-23T03:25:44.620Z,6.35
2023-05-23T03:30:46.644Z,5.18
2023-05-23T03:35:48.762Z,4.78
2023-05-23T03:40:50.881Z,4.43
2023-05-23T03:45:53.102Z,4.53
2023-05-23T03:50:55.537Z,4.20
2023-05-23T03:55:58.016Z,4.50
2023-05-23T04:01:02.272Z,4.32
2023-05-23T04:06:05.691Z,4.50
2023-05-23T04:11:08.909Z,4.32
2023-05-23T04:16:13.138Z,4.18
2023-05-23T04:21:16.522Z,3.92
2023-05-23T04:26:27.673Z,4.22
2023-05-23T04:31:30.221Z,3.85
2023-05-23T04:36:38.289Z,3.83
2023-05-23T04:41:40.660Z,4.10
2023-05-23T04:47:15.950Z,4.20
2023-05-23T04:52:30.930Z,4.18
2023-05-23T04:57:33.616Z,4.13
2023-05-23T05:02:37.405Z,4.35
2023-05-23T05:07:40.529Z,4.18
2023-05-23T05:12:45.602Z,4.00
2023-05-23T05:17:49.694Z,3.70
2023-05-23T05:22:58.143Z,3.72
2023-05-23T05:28:07.807Z,3.20
2023-05-23T05:33:15.253Z,3.75
2023-05-23T05:38:17.968Z,3.45
2023-05-23T05:43:21.010Z,3.40
2023-05-23T05:48:30.445Z,3.45
2023-05-23T05:53:36.928Z,3.38
2023-05-23T05:58:55.612Z,2.70
2023-05-23T06:04:00.252Z,2.55
2023-05-23T06:09:10.807Z,3.00
2023-05-23T06:19:18.448Z,2.65
2023-05-23T06:24:22.698Z,2.90
2023-05-23T06:29:43.470Z,2.40
2023-05-23T06:34:47.766Z,2.10
2023-05-23T06:39:49.672Z,2.60
2023-05-23T06:44:53.859Z,2.33
2023-05-23T06:49:57.868Z,2.30
2023-05-23T06:55:01.787Z,2.65
2023-05-23T07:00:05.973Z,2.88
2023-05-23T07:05:17.681Z,2.90
2023-05-23T07:10:26.476Z,3.05
2023-05-23T07:15:34.024Z,2.80
2023-05-23T07:20:54.710Z,2.83
2023-05-23T07:26:02.636Z,2.90
2023-05-23T07:31:31.578Z,2.90
2023-05-23T07:36:38.013Z,3.00
2023-05-23T07:41:43.090Z,2.45
2023-05-23T07:46:45.121Z,2.40
2023-05-23T07:51:47.267Z,2.75
2023-05-23T07:56:49.291Z,2.30
2023-05-23T08:01:53.207Z,2.17
2023-05-23T08:07:05.067Z,2.25
2023-05-23T08:17:40.968Z,2.92
2023-05-23T08:22:43.335Z,3.03
2023-05-23T08:27:45.780Z,3.13
2023-05-23T08:33:07.308Z,2.95
2023-05-23T08:38:11.544Z,3.38
2023-05-23T08:43:20.467Z,3.75
2023-05-23T08:48:24.065Z,4.07
2023-05-23T08:53:27.526Z,4.28
2023-05-23T08:58:39.033Z,3.78
2023-05-23T09:03:44.547Z,3.72
2023-05-23T09:08:54.821Z,3.60
2023-05-23T09:13:59.303Z,3.17
2023-05-23T09:19:11.871Z,3.30
2023-05-23T09:24:14.260Z,3.58
2023-05-23T09:29:21.647Z,3.50
2023-05-23T09:34:23.645Z,3.78
2023-05-23T09:39:25.714Z,3.67
2023-05-23T09:44:28.161Z,4.13
2023-05-23T09:49:30.051Z,3.60
2023-05-23T09:54:32.014Z,3.33
2023-05-23T09:59:38.578Z,3.08
2023-05-23T10:04:41.823Z,3.55
2023-05-23T10:09:57.433Z,3.40
2023-05-23T10:15:06.036Z,3.20
2023-05-23T10:20:12.642Z,3.03
2023-05-23T10:25:15.532Z,3.17
2023-05-23T10:30:17.803Z,2.92
2023-05-23T10:35:41.717Z,3.03
2023-05-23T10:40:53.999Z,2.70
2023-05-23T10:45:55.965Z,2.33
2023-05-23T10:51:09.150Z,2.40
2023-05-23T10:56:20.016Z,2.20
2023-05-23T11:01:22.213Z,2.10
2023-05-23T11:06:44.988Z,2.35
2023-05-23T11:12:05.861Z,2.22
2023-05-23T11:17:13.775Z,2.30
2023-05-23T11:22:16.015Z,2.20
2023-05-23T11:27:40.915Z,1.88
2023-05-23T11:32:54.324Z,2.20
2023-05-23T11:37:57.799Z,1.95
2023-05-23T11:43:00.875Z,2.28
2023-05-23T11:48:10.447Z,2.40
2023-05-23T11:53:13.558Z,2.45
2023-05-23T11:58:15.532Z,2.58
2023-05-23T12:03:17.579Z,2.53
2023-05-23T12:08:19.878Z,2.38
2023-05-23T12:13:25.922Z,2.25
2023-05-23T12:18:32.513Z,2.40
2023-05-23T12:23:35.894Z,2.50
2023-05-23T12:28:43.645Z,2.35
2023-05-23T12:33:49.046Z,2.85
2023-05-23T12:38:52.211Z,3.17
2023-05-23T12:43:55.997Z,3.22
2023-05-23T12:48:57.912Z,3.47
2023-05-23T12:54:00.141Z,3.60
2023-05-23T12:59:03.469Z,3.05
2023-05-23T13:04:07.192Z,2.97
2023-05-23T13:09:09.812Z,3.10
2023-05-23T13:14:13.766Z,4.72
2023-05-23T13:19:15.682Z,4.80
2023-05-23T13:24:18.059Z,4.35
2023-05-23T13:29:20.104Z,3.75
2023-05-23T13:34:21.991Z,3.22
2023-05-23T13:39:24.041Z,3.67
2023-05-23T13:44:26.309Z,2.63
2023-05-23T13:49:28.186Z,2.72
2023-05-23T13:54:30.031Z,2.70
2023-05-23T13:59:31.902Z,2.58
2023-05-23T14:04:33.876Z,2.28
2023-05-23T14:09:35.810Z,2.00
2023-05-23T14:14:37.656Z,2.30
2023-05-23T14:19:39.662Z,2.17
2023-05-23T14:24:41.648Z,2.25
2023-05-23T14:29:46.512Z,2.40
2023-05-23T14:34:48.466Z,2.45
2023-05-23T14:39:50.400Z,2.05
2023-05-23T14:44:54.075Z,2.28
2023-05-23T14:49:55.996Z,2.20
2023-05-23T14:54:58.026Z,1.85
2023-05-23T14:59:59.864Z,1.90
2023-05-23T15:05:01.972Z,2.25
2023-05-23T15:10:06.916Z,2.13
2023-05-23T15:15:09.896Z,1.92
2023-05-23T15:20:12.233Z,2.03
2023-05-23T15:25:14.113Z,2.03
2023-05-23T15:30:16.565Z,1.92
2023-05-23T15:35:19.903Z,2.22
2023-05-23T15:40:23.122Z,2.03
2023-05-23T15:45:25.118Z,2.50
2023-05-23T15:50:28.069Z,2.13
2023-05-23T15:55:32.158Z,2.10
2023-05-23T16:00:34.211Z,2.38
2023-05-23T16:05:36.553Z,1.90
2023-05-23T16:10:40.517Z,1.75
2023-05-23T16:15:43.751Z,1.80
2023-05-23T16:20:46.078Z,1.67
2023-05-23T16:25:48.521Z,1.77
2023-05-23T16:30:51.460Z,1.70
2023-05-23T16:35:55.574Z,1.80
2023-05-23T16:40:57.536Z,1.73
2023-05-23T16:45:59.466Z,1.83
2023-05-23T16:51:02.371Z,1.77
2023-05-23T16:56:06.254Z,1.80
2023-05-23T17:01:09.250Z,1.88
2023-05-23T17:06:11.288Z,1.92
2023-05-23T17:11:14.255Z,1.85
2023-05-23T17:16:20.425Z,1.70
2023-05-23T17:21:23.668Z,2.22
2023-05-23T17:26:27.503Z,2.35
2023-05-23T17:31:30.808Z,1.70
2023-05-23T17:36:34.262Z,1.70
2023-05-23T17:41:38.176Z,1.67
2023-05-23T17:46:41.521Z,1.70
2023-05-23T17:51:43.498Z,1.67
2023-05-23T17:56:45.479Z,1.58
2023-05-23T18:01:47.950Z,1.80
2023-05-23T18:06:50.671Z,1.67
2023-05-23T18:11:53.686Z,1.60
2023-05-23T18:16:55.748Z,1.50
2023-05-23T18:21:57.842Z,1.60
2023-05-23T18:27:01.409Z,1.73
2023-05-23T18:32:04.637Z,1.60
2023-05-23T18:37:06.695Z,1.50
2023-05-23T18:42:08.627Z,2.00
2023-05-23T18:47:10.704Z,1.67
2023-05-23T18:52:13.838Z,1.50
2023-05-23T18:57:17.504Z,1.75
2023-05-23T19:02:20.808Z,1.50
2023-05-23T19:07:23.938Z,1.80
2023-05-23T19:12:26.982Z,1.70
2023-05-23T19:17:29.000Z,1.60
2023-05-23T19:22:43.097Z,1.52
2023-05-23T19:27:52.998Z,1.50
2023-05-23T19:32:55.293Z,1.70
2023-05-23T19:37:57.368Z,1.65
2023-05-23T19:42:59.352Z,1.60
2023-05-23T19:48:02.391Z,1.63
2023-05-23T19:53:05.357Z,1.50
2023-05-23T19:58:07.370Z,1.60
2023-05-23T20:03:09.480Z,1.75
2023-05-23T20:08:11.625Z,1.50
2023-05-23T20:13:13.740Z,1.60
2023-05-23T20:18:16.368Z,1.50
2023-05-23T20:23:18.398Z,1.52
2023-05-23T20:28:20.262Z,1.60
2023-05-23T20:33:22.264Z,1.60
2023-05-23T20:38:24.893Z,1.83
2023-05-23T20:43:26.758Z,1.60
2023-05-23T20:48:28.805Z,1.80
2023-05-23T20:53:31.540Z,1.83
2023-05-23T20:58:33.890Z,1.40
2023-05-23T21:03:35.923Z,1.70
2023-05-23T21:08:37.837Z,1.77
2023-05-23T21:13:39.993Z,1.60
2023-05-23T21:18:41.981Z,1.50
2023-05-23T21:23:43.851Z,1.77
2023-05-23T21:28:45.761Z,1.80
2023-05-23T21:33:48.023Z,1.52
2023-05-23T21:38:49.909Z,2.13
2023-05-23T21:43:52.501Z,1.65
2023-05-23T21:48:54.348Z,1.45
2023-05-23T21:53:56.229Z,1.55
2023-05-23T21:58:58.613Z,1.80
2023-05-23T22:04:01.628Z,1.50
2023-05-23T22:09:03.997Z,1.58
2023-05-23T22:14:05.914Z,1.50
2023-05-23T22:19:10.039Z,1.30
2023-05-23T22:24:12.110Z,1.60
2023-05-23T22:29:44.883Z,1.42
2023-05-23T22:34:46.699Z,1.65
2023-05-23T22:39:48.555Z,1.63
2023-05-23T22:44:50.474Z,1.50
2023-05-23T22:49:56.628Z,1.40
2023-05-23T22:54:58.563Z,1.60
2023-05-23T23:00:00.613Z,1.40
2023-05-23T23:05:03.849Z,1.60
2023-05-23T23:10:07.911Z,1.60
2023-05-23T23:15:10.183Z,1.65
2023-05-23T23:20:13.014Z,1.63
2023-05-23T23:25:15.552Z,1.50
2023-05-23T23:30:17.726Z,1.30
2023-05-23T23:35:19.654Z,1.40
2023-05-23T23:40:21.688Z,1.60
2023-05-23T23:45:23.561Z,1.70
2023-05-23T23:50:26.908Z,1.70
2023-05-23T23:55:28.742Z,1.50
